Time;durP1;ratioP1;P1;durP2;ratioP2;P2;SDS_P1;SDS_P2;PMS_P1;PMS_P2;Temp;Humidity;BMP_temperature;BMP_pressure;BME280_temperature;BME280_humidity;BME280_pressure;Samples;Min_cycle;Max_cycle;Signal;HPM_P1;HPM_P2
2023/01/01 00:02:06;;;;;;;;;;;;;;;;;;5024577;28;19966;-64
2023/01/01 00:04:33;;;;;;;;;;;;;;;;;;5037751;28;19925;-63
2023/01/01 00:06:59;;;;;;;;;;;;;;;;;;5024476;28;20442;-63
2023/01/01 00:12:09;;;;;;;;;;;;;;;;;;5024682;28;19917;-62
2023/01/01 00:14:35;;;;;;;;;;;;;;;;;;5026985;28;19925;-62
2023/01/01 00:17:01;;;;;;;;;;;;;;;;;;5025353;28;19944;-62
2023/01/01 00:19:27;;;;;;;;;;;;;;;;;;5026722;28;21107;-63
2023/01/01 00:21:54;;;;;;;;;;;;;;;;;;5023677;28;19971;-63
2023/01/01 00:24:20;;;;;;;;;;;;;;;;;;5040100;28;19925;-63
2023/01/01 00:26:45;;;;;;;;;;;;;;;;;;5023713;28;20144;-63
2023/01/01 00:29:11;;;;;;;;;;;;;;;;;;5026037;28;19921;-63
2023/01/01 00:31:37;;;;;;;;;;;;;;;;;;5025550;28;20693;-63
2023/01/01 00:34:03;;;;;;;;;;;;;;;;;;5024632;28;19968;-63
2023/01/01 00:36:29;;;;;;;;;;;;;;;;;;5025897;28;20354;-65
2023/01/01 00:38:55;;;;;;;;;;;;;;;;;;5026671;28;20395;-64
2023/01/01 00:41:21;;;;;;;;;;;;;;;;;;5024909;28;19921;-63
2023/01/01 00:43:47;;;;;;;;;;;;;;;;;;5025565;28;19932;-63
2023/01/01 00:46:13;;;;;;;;;;;;;;;;;;5024919;28;19921;-62
2023/01/01 00:48:39;;;;;;;;;;;;;;;;;;5025820;28;19944;-63
2023/01/01 00:51:05;;;;;;;;;;;;;;;;;;5024557;28;21110;-63
2023/01/01 00:53:31;;;;;;;;;;;;;;;;;;5026109;28;20410;-63
2023/01/01 00:55:57;;;;;;;;;;;;;;;;;;5023764;28;19928;-63
2023/01/01 00:58:23;;;;;;;;;;;;;;;;;;5024487;28;19921;-63
2023/01/01 01:00:49;;;;;;;;;;;;;;;;;;5021557;28;19925;-63
2023/01/01 01:03:27;;;;;;;;;;;;;;;;;;5025832;28;19932;-63
2023/01/01 01:05:52;;;;;;;;;;;;;;;;;;5023947;28;21069;-63
2023/01/01 01:08:18;;;;;;;;;;;;;;;;;;5022959;28;19928;-62
2023/01/01 01:10:44;;;;;;;;;;;;;;;;;;5026264;28;19921;-63
2023/01/01 01:13:10;;;;;;;;;;;;;;;;;;5024769;28;19925;-63
2023/01/01 01:15:36;;;;;;;;;;;;;;;;;;5022430;28;19928;-63
2023/01/01 01:18:02;;;;;;;;;;;;;;;;;;5022823;28;20326;-63
2023/01/01 01:20:28;;;;;;;;;;;;;;;;;;5021841;28;19960;-62
2023/01/01 01:22:54;;;;;;;;;;;;;;;;;;5023593;28;19925;-63
2023/01/01 01:25:20;;;;;;;;;;;;;;;;;;5022666;28;19975;-62
2023/01/01 01:27:46;;;;;;;;;;;;;;;;;;5022756;28;19927;-63
2023/01/01 01:30:12;;;;;;;;;;;;;;;;;;5025350;28;19921;-63
2023/01/01 01:32:38;;;;;;;;;;;;;;;;;;5022982;28;20000;-63
2023/01/01 01:35:04;;;;;;;;;;;;;;;;;;5024167;28;19925;-63
2023/01/01 01:37:30;;;;;;;;;;;;;;;;;;5022265;28;19921;-63
2023/01/01 01:39:56;;;;;;;;;;;;;;;;;;5025038;28;19927;-63
2023/01/01 01:42:22;;;;;;;;;;;;;;;;;;5023531;28;19925;-63
2023/01/01 01:44:48;;;;;;;;;;;;;;;;;;5024738;28;19921;-63
2023/01/01 01:47:13;;;;;;;;;;;;;;;;;;5023379;28;20433;-63
2023/01/01 01:49:39;;;;;;;;;;;;;;;;;;5023375;28;20457;-63
2023/01/01 01:52:05;;;;;;;;;;;;;;;;;;5019443;28;19925;-63
2023/01/01 01:54:31;;;;;;;;;;;;;;;;;;5033189;28;19921;-63
2023/01/01 01:56:57;;;;;;;;;;;;;;;;;;5021877;28;19922;-63
2023/01/01 01:59:23;;;;;;;;;;;;;;;;;;5019534;28;19925;-64
2023/01/01 02:01:49;;;;;;;;;;;;;;;;;;5020840;28;19925;-63
2023/01/01 02:04:15;;;;;;;;;;;;;;;;;;5019372;28;19975;-63
2023/01/01 02:06:41;;;;;;;;;;;;;;;;;;5022196;28;19999;-63
2023/01/01 02:09:07;;;;;;;;;;;;;;;;;;5022697;28;19967;-63
2023/01/01 02:11:33;;;;;;;;;;;;;;;;;;5021761;28;20734;-63
2023/01/01 02:13:59;;;;;;;;;;;;;;;;;;5024492;28;19921;-63
2023/01/01 02:16:24;;;;;;;;;;;;;;;;;;5024316;28;21425;-62
2023/01/01 02:18:50;;;;;;;;;;;;;;;;;;5024609;28;20525;-63
2023/01/01 02:21:16;;;;;;;;;;;;;;;;;;5021593;28;20031;-63
2023/01/01 02:23:43;;;;;;;;;;;;;;;;;;5023435;28;19929;-62
2023/01/01 02:26:09;;;;;;;;;;;;;;;;;;5021933;28;19921;-63
2023/01/01 02:28:35;;;;;;;;;;;;;;;;;;5025103;28;20509;-63
2023/01/01 02:31:01;;;;;;;;;;;;;;;;;;5023675;28;20546;-63
2023/01/01 02:33:27;;;;;;;;;;;;;;;;;;5023747;28;19968;-63
2023/01/01 02:35:53;;;;;;;;;;;;;;;;;;5020841;28;20331;-63
2023/01/01 02:38:19;;;;;;;;;;;;;;;;;;5022712;28;20465;-63
2023/01/01 02:40:44;;;;;;;;;;;;;;;;;;5024463;28;19932;-63
2023/01/01 02:43:10;;;;;;;;;;;;;;;;;;5022585;28;19921;-63
2023/01/01 02:45:36;;;;;;;;;;;;;;;;;;5025211;28;19921;-62
2023/01/01 02:48:02;;;;;;;;;;;;;;;;;;5021324;28;20028;-63
2023/01/01 02:50:28;;;;;;;;;;;;;;;;;;5021644;28;19926;-63
2023/01/01 02:52:54;;;;;;;;;;;;;;;;;;5021422;28;19922;-63
2023/01/01 02:55:20;;;;;;;;;;;;;;;;;;5023183;28;20352;-63
2023/01/01 02:57:46;;;;;;;;;;;;;;;;;;5023445;28;20501;-63
2023/01/01 03:00:18;;;;;;;;;;;;;;;;;;5023658;28;19930;-63
2023/01/01 03:02:44;;;;;;;;;;;;;;;;;;5023695;28;19922;-63
2023/01/01 03:05:10;;;;;;;;;;;;;;;;;;5021547;28;19921;-63
2023/01/01 03:07:36;;;;;;;;;;;;;;;;;;5023088;28;20330;-63
2023/01/01 03:10:02;;;;;;;;;;;;;;;;;;5022920;28;19925;-63
2023/01/01 03:12:38;;;;;;;;;;;;;;;;;;5023543;28;19964;-63
2023/01/01 03:15:04;;;;;;;;;;;;;;;;;;5023117;28;19991;-63
2023/01/01 03:17:30;;;;;;;;;;;;;;;;;;5024205;28;19921;-62
2023/01/01 03:19:56;;;;;;;;;;;;;;;;;;5021157;28;19925;-63
2023/01/01 03:22:22;;;;;;;;;;;;;;;;;;5022658;28;19952;-62
2023/01/01 03:24:48;;;;;;;;;;;;;;;;;;5027268;28;20300;-63
2023/01/01 03:27:14;;;;;;;;;;;;;;;;;;5025446;28;19922;-63
2023/01/01 03:29:40;;;;;;;;;;;;;;;;;;5025305;28;20467;-63
2023/01/01 03:32:06;;;;;;;;;;;;;;;;;;5026124;28;20510;-63
2023/01/01 03:34:31;;;;;;;;;;;;;;;;;;5026794;28;20310;-62
2023/01/01 03:36:57;;;;;;;;;;;;;;;;;;5021569;28;19921;-63
2023/01/01 03:39:23;;;;;;;;;;;;;;;;;;5024642;28;19926;-63
2023/01/01 03:41:49;;;;;;;;;;;;;;;;;;5026251;28;20149;-63
2023/01/01 03:44:15;;;;;;;;;;;;;;;;;;5025116;28;19924;-62
2023/01/01 03:46:41;;;;;;;;;;;;;;;;;;5025616;28;20506;-63
2023/01/01 03:49:07;;;;;;;;;;;;;;;;;;5025334;28;19925;-63
2023/01/01 03:51:33;;;;;;;;;;;;;;;;;;5022236;28;20347;-63
2023/01/01 03:53:59;;;;;;;;;;;;;;;;;;5025768;28;20292;-63
2023/01/01 03:56:25;;;;;;;;;;;;;;;;;;5019843;28;19980;-63
2023/01/01 03:58:51;;;;;;;;;;;;;;;;;;5024154;28;20408;-63
2023/01/01 04:01:17;;;;;;;;;;;;;;;;;;5021517;28;19928;-63
2023/01/01 04:03:42;;;;;;;;;;;;;;;;;;5022394;28;19921;-63
2023/01/01 04:06:08;;;;;;;;;;;;;;;;;;5020941;28;19928;-63
2023/01/01 04:08:34;;;;;;;;;;;;;;;;;;5025511;28;19967;-63
2023/01/01 04:12:00;;;;;;;;;;;;;;;;;;5022216;28;19921;-63
2023/01/01 04:13:46;;;;;;;;;;;;;;;;;;5023685;28;20379;-63
2023/01/01 04:16:12;;;;;;;;;;;;;;;;;;5022790;28;19922;-63
2023/01/01 04:18:38;;;;;;;;;;;;;;;;;;5021291;28;19952;-63
2023/01/01 04:21:04;;;;;;;;;;;;;;;;;;5022273;28;19921;-63
2023/01/01 04:23:30;;;;;;;;;;;;;;;;;;5023125;28;19929;-63
2023/01/01 04:25:56;;;;;;;;;;;;;;;;;;5022579;28;19944;-63
2023/01/01 04:28:22;;;;;;;;;;;;;;;;;;5022272;28;20458;-63
2023/01/01 04:30:48;;;;;;;;;;;;;;;;;;5022839;28;20007;-63
2023/01/01 04:33:14;;;;;;;;;;;;;;;;;;5020907;28;20655;-63
2023/01/01 04:35:40;;;;;;;;;;;;;;;;;;5018448;28;19929;-63
2023/01/01 04:38:06;;;;;;;;;;;;;;;;;;5020880;28;19924;-63
2023/01/01 04:40:31;;;;;;;;;;;;;;;;;;5022208;28;19979;-63
2023/01/01 04:42:57;;;;;;;;;;;;;;;;;;5021824;28;20310;-63
2023/01/01 04:45:23;;;;;;;;;;;;;;;;;;5004601;28;20502;-63
2023/01/01 04:47:49;;;;;;;;;;;;;;;;;;5021181;28;19925;-63
2023/01/01 04:50:15;;;;;;;;;;;;;;;;;;5022322;28;20414;-64
2023/01/01 04:52:41;;;;;;;;;;;;;;;;;;5022932;28;20388;-63
2023/01/01 04:55:07;;;;;;;;;;;;;;;;;;5039754;28;19959;-64
2023/01/01 04:57:33;;;;;;;;;;;;;;;;;;5023466;28;19975;-63
2023/01/01 04:59:59;;;;;;;;;;;;;;;;;;5024581;28;19925;-63
2023/01/01 05:02:25;;;;;;;;;;;;;;;;;;5025826;28;19920;-63
2023/01/01 05:04:51;;;;;;;;;;;;;;;;;;5025046;28;19925;-63
2023/01/01 05:07:17;;;;;;;;;;;;;;;;;;5023047;28;19925;-63
2023/01/01 05:09:42;;;;;;;;;;;;;;;;;;5025313;28;20445;-63
2023/01/01 05:12:08;;;;;;;;;;;;;;;;;;5025309;28;20007;-63
2023/01/01 05:14:34;;;;;;;;;;;;;;;;;;5025602;28;19943;-62
2023/01/01 05:17:00;;;;;;;;;;;;;;;;;;5023380;28;19932;-62
2023/01/01 05:19:26;;;;;;;;;;;;;;;;;;5025051;28;19921;-62
2023/01/01 05:21:53;;;;;;;;;;;;;;;;;;5023044;28;19921;-63
2023/01/01 05:24:19;;;;;;;;;;;;;;;;;;5023227;28;19921;-63
2023/01/01 05:26:45;;;;;;;;;;;;;;;;;;5023636;28;19926;-63
2023/01/01 05:29:11;;;;;;;;;;;;;;;;;;5022998;28;20389;-63
2023/01/01 05:31:37;;;;;;;;;;;;;;;;;;5022726;28;19922;-63
2023/01/01 05:34:03;;;;;;;;;;;;;;;;;;5024535;28;20007;-63
2023/01/01 05:36:29;;;;;;;;;;;;;;;;;;5022638;28;20429;-63
2023/01/01 05:38:55;;;;;;;;;;;;;;;;;;5023622;28;20016;-63
2023/01/01 05:41:20;;;;;;;;;;;;;;;;;;5023863;28;19925;-63
2023/01/01 05:43:46;;;;;;;;;;;;;;;;;;5025154;28;19992;-63
2023/01/01 05:46:12;;;;;;;;;;;;;;;;;;5022474;28;19964;-63
2023/01/01 05:48:38;;;;;;;;;;;;;;;;;;5024467;28;19972;-63
2023/01/01 05:51:04;;;;;;;;;;;;;;;;;;5021694;28;19921;-63
2023/01/01 05:53:30;;;;;;;;;;;;;;;;;;5023899;28;19921;-64
2023/01/01 05:55:56;;;;;;;;;;;;;;;;;;5018426;28;19925;-63
2023/01/01 05:58:22;;;;;;;;;;;;;;;;;;5021502;28;20094;-63
2023/01/01 06:00:48;;;;;;;;;;;;;;;;;;5021599;28;20446;-64
2023/01/01 06:03:14;;;;;;;;;;;;;;;;;;5023964;28;19921;-63
2023/01/01 06:05:40;;;;;;;;;;;;;;;;;;5022418;28;19948;-62
2023/01/01 06:08:06;;;;;;;;;;;;;;;;;;5022779;28;20381;-63
2023/01/01 06:10:32;;;;;;;;;;;;;;;;;;5022530;28;19983;-64
2023/01/01 06:12:58;;;;;;;;;;;;;;;;;;5022663;28;19932;-63
2023/01/01 06:15:24;;;;;;;;;;;;;;;;;;5023612;28;20468;-63
2023/01/01 06:17:50;;;;;;;;;;;;;;;;;;5023206;28;19929;-64
2023/01/01 06:20:16;;;;;;;;;;;;;;;;;;5024972;28;20030;-63
2023/01/01 06:22:41;;;;;;;;;;;;;;;;;;5019388;28;19929;-63
2023/01/01 06:25:07;;;;;;;;;;;;;;;;;;5021946;28;19929;-63
2023/01/01 06:27:33;;;;;;;;;;;;;;;;;;5023802;28;20370;-63
2023/01/01 06:29:59;;;;;;;;;;;;;;;;;;5022810;28;19976;-63
2023/01/01 06:32:25;;;;;;;;;;;;;;;;;;5022793;28;19921;-63
2023/01/01 06:34:51;;;;;;;;;;;;;;;;;;5023295;28;19925;-63
2023/01/01 06:37:17;;;;;;;;;;;;;;;;;;5022867;28;20044;-64
2023/01/01 06:39:43;;;;;;;;;;;;;;;;;;5023907;28;19927;-64
2023/01/01 06:42:09;;;;;;;;;;;;;;;;;;5023726;28;19928;-63
2023/01/01 06:44:35;;;;;;;;;;;;;;;;;;5024876;28;20428;-63
2023/01/01 06:47:01;;;;;;;;;;;;;;;;;;5023825;28;21180;-63
2023/01/01 06:49:27;;;;;;;;;;;;;;;;;;5021197;28;19956;-63
2023/01/01 06:51:52;;;;;;;;;;;;;;;;;;5022762;28;19921;-63
2023/01/01 06:54:18;;;;;;;;;;;;;;;;;;5023017;28;20007;-64
2023/01/01 06:56:44;;;;;;;;;;;;;;;;;;5023120;28;19971;-63
2023/01/01 06:59:10;;;;;;;;;;;;;;;;;;5025158;28;19925;-62
2023/01/01 07:01:36;;;;;;;;;;;;;;;;;;5024623;28;19921;-63
2023/01/01 07:04:02;;;;;;;;;;;;;;;;;;5024363;28;20012;-63
2023/01/01 07:06:28;;;;;;;;;;;;;;;;;;5024199;28;20456;-65
2023/01/01 07:08:54;;;;;;;;;;;;;;;;;;5026621;28;19925;-63
2023/01/01 07:11:20;;;;;;;;;;;;;;;;;;5026510;28;20035;-63
2023/01/01 07:13:46;;;;;;;;;;;;;;;;;;5024668;28;19991;-63
2023/01/01 07:16:12;;;;;;;;;;;;;;;;;;5025709;28;20734;-63
2023/01/01 07:18:38;;;;;;;;;;;;;;;;;;5025665;28;19921;-63
2023/01/01 07:21:04;;;;;;;;;;;;;;;;;;5024628;28;20393;-63
2023/01/01 07:23:30;;;;;;;;;;;;;;;;;;5025527;28;19922;-63
2023/01/01 07:25:56;;;;;;;;;;;;;;;;;;5023008;28;19925;-63
2023/01/01 07:28:21;;;;;;;;;;;;;;;;;;5024730;28;20411;-62
2023/01/01 07:30:47;;;;;;;;;;;;;;;;;;5026089;28;19925;-62
2023/01/01 07:33:13;;;;;;;;;;;;;;;;;;5024025;28;20339;-58
2023/01/01 07:35:39;;;;;;;;;;;;;;;;;;5026382;28;19921;-59
2023/01/01 07:38:05;;;;;;;;;;;;;;;;;;5040865;28;20012;-58
2023/01/01 07:40:31;;;;;;;;;;;;;;;;;;5026684;28;19921;-58
2023/01/01 07:42:57;;;;;;;;;;;;;;;;;;5027148;28;19932;-58
2023/01/01 07:45:23;;;;;;;;;;;;;;;;;;5025863;28;19948;-60
2023/01/01 07:47:49;;;;;;;;;;;;;;;;;;5022871;28;19924;-58
2023/01/01 07:50:15;;;;;;;;;;;;;;;;;;5023303;28;19921;-58
2023/01/01 07:52:41;;;;;;;;;;;;;;;;;;5026465;28;19929;-58
2023/01/01 07:55:07;;;;;;;;;;;;;;;;;;5025942;28;20513;-58
2023/01/01 07:57:33;;;;;;;;;;;;;;;;;;5025494;28;19953;-58
2023/01/01 07:59:59;;;;;;;;;;;;;;;;;;5027214;28;20024;-58
2023/01/01 08:02:25;;;;;;;;;;;;;;;;;;5026028;28;20328;-58
2023/01/01 08:04:51;;;;;;;;;;;;;;;;;;5023179;28;19921;-58
2023/01/01 08:07:17;;;;;;;;;;;;;;;;;;5025745;28;19932;-58
2023/01/01 08:09:43;;;;;;;;;;;;;;;;;;5023474;28;19921;-58
2023/01/01 08:12:09;;;;;;;;;;;;;;;;;;5025215;28;19925;-58
2023/01/01 08:14:35;;;;;;;;;;;;;;;;;;5026993;28;19920;-58
2023/01/01 08:17:01;;;;;;;;;;;;;;;;;;5026022;28;19961;-58
2023/01/01 08:19:26;;;;;;;;;;;;;;;;;;5025231;28;20576;-58
2023/01/01 08:21:52;;;;;;;;;;;;;;;;;;5024168;28;21362;-59
2023/01/01 08:24:18;;;;;;;;;;;;;;;;;;5024420;28;19925;-58
2023/01/01 08:26:44;;;;;;;;;;;;;;;;;;5026676;28;19921;-58
2023/01/01 08:29:10;;;;;;;;;;;;;;;;;;5024724;28;19925;-58
2023/01/01 08:31:36;;;;;;;;;;;;;;;;;;5026103;28;19925;-58
2023/01/01 08:34:02;;;;;;;;;;;;;;;;;;5026378;28;20449;-58
2023/01/01 08:36:28;;;;;;;;;;;;;;;;;;5020596;28;20023;-58
2023/01/01 08:38:54;;;;;;;;;;;;;;;;;;5025596;28;19925;-58
2023/01/01 08:41:20;;;;;;;;;;;;;;;;;;5025931;28;19932;-58
2023/01/01 08:43:46;;;;;;;;;;;;;;;;;;5024399;28;19921;-58
2023/01/01 08:46:12;;;;;;;;;;;;;;;;;;5021506;28;19936;-58
2023/01/01 08:48:37;;;;;;;;;;;;;;;;;;5024398;28;19921;-59
2023/01/01 08:51:03;;;;;;;;;;;;;;;;;;5022937;28;19932;-58
2023/01/01 08:53:29;;;;;;;;;;;;;;;;;;5024449;28;20406;-58
2023/01/01 08:55:55;;;;;;;;;;;;;;;;;;5026062;28;20494;-58
2023/01/01 08:58:21;;;;;;;;;;;;;;;;;;5021904;28;19928;-58
2023/01/01 09:00:47;;;;;;;;;;;;;;;;;;5021258;28;19936;-58
2023/01/01 09:03:13;;;;;;;;;;;;;;;;;;5015699;28;19921;-58
2023/01/01 09:05:44;;;;;;;;;;;;;;;;;;5016817;28;20323;-58
2023/01/01 09:08:10;;;;;;;;;;;;;;;;;;5021482;28;19927;-58
2023/01/01 09:10:36;;;;;;;;;;;;;;;;;;5023596;28;20501;-58
2023/01/01 09:13:02;;;;;;;;;;;;;;;;;;5035575;28;19921;-58
2023/01/01 09:15:28;;;;;;;;;;;;;;;;;;5018845;28;19929;-58
2023/01/01 09:17:54;;;;;;;;;;;;;;;;;;5020559;28;19921;-59
2023/01/01 09:20:20;;;;;;;;;;;;;;;;;;5017616;28;19933;-58
2023/01/01 09:22:46;;;;;;;;;;;;;;;;;;5022639;28;19921;-58
2023/01/01 09:25:12;;;;;;;;;;;;;;;;;;5023539;28;19921;-58
2023/01/01 09:27:38;;;;;;;;;;;;;;;;;;5024370;28;20011;-58
2023/01/01 09:30:04;;;;;;;;;;;;;;;;;;5024703;28;19932;-58
2023/01/01 09:32:29;;;;;;;;;;;;;;;;;;5022462;28;19925;-58
2023/01/01 09:34:56;;;;;;;;;;;;;;;;;;5022560;28;19921;-58
2023/01/01 09:37:22;;;;;;;;;;;;;;;;;;5023791;28;20552;-58
2023/01/01 09:39:49;;;;;;;;;;;;;;;;;;5018999;28;20403;-58
2023/01/01 09:42:15;;;;;;;;;;;;;;;;;;5035850;28;19992;-58
2023/01/01 09:44:41;;;;;;;;;;;;;;;;;;5026026;28;19921;-58
2023/01/01 09:47:07;;;;;;;;;;;;;;;;;;5025109;28;20323;-58
2023/01/01 09:49:33;;;;;;;;;;;;;;;;;;5024876;28;19948;-58
2023/01/01 09:52:00;;;;;;;;;;;;;;;;;;5024139;28;19961;-58
2023/01/01 09:54:26;;;;;;;;;;;;;;;;;;5026078;28;20326;-58
2023/01/01 09:56:52;;;;;;;;;;;;;;;;;;5025871;28;20335;-58
2023/01/01 09:59:18;;;;;;;;;;;;;;;;;;5022466;28;20447;-58
2023/01/01 10:01:43;;;;;;;;;;;;;;;;;;5023210;28;19943;-58
2023/01/01 10:04:09;;;;;;;;;;;;;;;;;;5040104;28;20005;-58
2023/01/01 10:06:35;;;;;;;;;;;;;;;;;;5022978;28;19970;-58
2023/01/01 10:09:01;;;;;;;;;;;;;;;;;;5022472;28;19929;-58
2023/01/01 10:11:27;;;;;;;;;;;;;;;;;;5023874;28;20369;-59
2023/01/01 10:13:53;;;;;;;;;;;;;;;;;;5023407;28;20412;-59
2023/01/01 10:16:19;;;;;;;;;;;;;;;;;;5023430;28;19928;-59
2023/01/01 10:18:45;;;;;;;;;;;;;;;;;;5039605;28;20406;-59
2023/01/01 10:21:11;;;;;;;;;;;;;;;;;;5023043;28;19956;-58
2023/01/01 10:23:37;;;;;;;;;;;;;;;;;;5024807;28;19921;-59
2023/01/01 10:26:03;;;;;;;;;;;;;;;;;;5021850;28;19921;-58
2023/01/01 10:28:29;;;;;;;;;;;;;;;;;;5021023;28;19925;-58
2023/01/01 10:30:55;;;;;;;;;;;;;;;;;;5021481;28;19957;-58
2023/01/01 10:33:20;;;;;;;;;;;;;;;;;;5019459;28;20593;-59
2023/01/01 10:35:46;;;;;;;;;;;;;;;;;;5023411;28;20451;-59
2023/01/01 10:38:12;;;;;;;;;;;;;;;;;;5021193;28;19931;-59
2023/01/01 10:40:38;;;;;;;;;;;;;;;;;;5022269;28;19921;-59
2023/01/01 10:43:04;;;;;;;;;;;;;;;;;;5021355;28;19921;-60
2023/01/01 10:45:30;;;;;;;;;;;;;;;;;;5016229;28;19967;-59
2023/01/01 10:47:56;;;;;;;;;;;;;;;;;;5020039;28;20450;-58
2023/01/01 10:50:22;;;;;;;;;;;;;;;;;;5019359;28;19921;-58
2023/01/01 10:52:48;;;;;;;;;;;;;;;;;;5019043;28;19922;-59
2023/01/01 10:55:14;;;;;;;;;;;;;;;;;;5018610;28;19921;-59
2023/01/01 10:57:40;;;;;;;;;;;;;;;;;;5021701;28;20485;-59
2023/01/01 11:00:06;;;;;;;;;;;;;;;;;;5017854;28;21032;-59
2023/01/01 11:02:31;;;;;;;;;;;;;;;;;;5015987;28;19921;-59
2023/01/01 11:04:57;;;;;;;;;;;;;;;;;;5015019;28;20367;-58
2023/01/01 11:07:23;;;;;;;;;;;;;;;;;;5015589;28;20455;-59
2023/01/01 11:09:49;;;;;;;;;;;;;;;;;;5016688;28;19921;-59
2023/01/01 11:12:15;;;;;;;;;;;;;;;;;;5019097;28;19921;-59
2023/01/01 11:14:41;;;;;;;;;;;;;;;;;;5021017;28;20277;-59
2023/01/01 11:17:07;;;;;;;;;;;;;;;;;;5018811;28;19980;-59
2023/01/01 11:19:33;;;;;;;;;;;;;;;;;;5012209;28;19975;-58
2023/01/01 11:21:59;;;;;;;;;;;;;;;;;;5017270;28;19923;-59
2023/01/01 11:24:25;;;;;;;;;;;;;;;;;;5016883;28;19948;-59
2023/01/01 11:26:51;;;;;;;;;;;;;;;;;;5018502;28;20311;-59
2023/01/01 11:29:17;;;;;;;;;;;;;;;;;;5014523;28;19968;-59
2023/01/01 11:31:43;;;;;;;;;;;;;;;;;;5015031;28;19967;-59
2023/01/01 11:34:08;;;;;;;;;;;;;;;;;;5016267;28;20852;-58
2023/01/01 11:36:34;;;;;;;;;;;;;;;;;;5013022;28;19925;-59
2023/01/01 11:39:00;;;;;;;;;;;;;;;;;;5016995;28;19928;-59
2023/01/01 11:41:26;;;;;;;;;;;;;;;;;;5017383;28;20315;-59
2023/01/01 11:43:52;;;;;;;;;;;;;;;;;;5018839;28;20360;-59
2023/01/01 11:46:18;;;;;;;;;;;;;;;;;;5016191;28;19931;-59
2023/01/01 11:48:44;;;;;;;;;;;;;;;;;;5018273;28;19921;-59
2023/01/01 11:51:13;;;;;;;;;;;;;;;;;;5017329;28;20245;-58
2023/01/01 11:53:40;;;;;;;;;;;;;;;;;;5018269;28;19966;-59
2023/01/01 11:56:06;;;;;;;;;;;;;;;;;;5018567;28;20392;-58
2023/01/01 11:58:32;;;;;;;;;;;;;;;;;;5020524;28;19922;-59
2023/01/01 12:00:58;;;;;;;;;;;;;;;;;;5018175;28;19928;-58
2023/01/01 12:03:24;;;;;;;;;;;;;;;;;;5019419;28;20505;-59
2023/01/01 12:05:50;;;;;;;;;;;;;;;;;;5019980;28;19933;-58
2023/01/01 12:08:16;;;;;;;;;;;;;;;;;;5016653;28;19921;-58
2023/01/01 12:10:42;;;;;;;;;;;;;;;;;;5050199;28;19922;-59
2023/01/01 12:13:08;;;;;;;;;;;;;;;;;;5020937;28;19928;-59
2023/01/01 12:15:34;;;;;;;;;;;;;;;;;;5020750;28;20315;-59
2023/01/01 12:18:00;;;;;;;;;;;;;;;;;;5021061;28;19921;-58
2023/01/01 12:20:26;;;;;;;;;;;;;;;;;;5018628;28;19960;-58
2023/01/01 12:22:52;;;;;;;;;;;;;;;;;;5018695;28;20407;-58
2023/01/01 12:25:17;;;;;;;;;;;;;;;;;;5021141;28;20038;-59
2023/01/01 12:27:43;;;;;;;;;;;;;;;;;;5019272;28;20072;-59
2023/01/01 12:30:09;;;;;;;;;;;;;;;;;;5022525;28;20446;-59
2023/01/01 12:32:35;;;;;;;;;;;;;;;;;;5021103;28;21182;-58
2023/01/01 12:35:02;;;;;;;;;;;;;;;;;;5016436;28;20306;-59
2023/01/01 12:37:28;;;;;;;;;;;;;;;;;;5021854;28;19967;-59
2023/01/01 12:39:54;;;;;;;;;;;;;;;;;;5019305;28;20410;-59
2023/01/01 12:42:20;;;;;;;;;;;;;;;;;;5021102;28;19929;-59
2023/01/01 12:44:46;;;;;;;;;;;;;;;;;;5020214;28;19987;-59
2023/01/01 12:47:12;;;;;;;;;;;;;;;;;;5024505;28;19964;-59
2023/01/01 12:49:37;;;;;;;;;;;;;;;;;;5020659;28;19921;-59
2023/01/01 12:52:04;;;;;;;;;;;;;;;;;;5022535;28;19921;-59
2023/01/01 12:54:30;;;;;;;;;;;;;;;;;;5021840;28;19925;-59
2023/01/01 12:56:56;;;;;;;;;;;;;;;;;;5020653;28;20478;-59
2023/01/01 12:59:22;;;;;;;;;;;;;;;;;;5021168;28;20072;-59
2023/01/01 13:01:48;;;;;;;;;;;;;;;;;;5021477;28;19917;-59
2023/01/01 13:04:13;;;;;;;;;;;;;;;;;;5023100;28;20362;-59
2023/01/01 13:06:39;;;;;;;;;;;;;;;;;;5024014;28;20399;-58
2023/01/01 13:09:05;;;;;;;;;;;;;;;;;;5021950;28;19922;-59
2023/01/01 13:11:33;;;;;;;;;;;;;;;;;;5020336;28;19925;-59
2023/01/01 13:13:59;;;;;;;;;;;;;;;;;;5017974;28;19924;-58
2023/01/01 13:16:25;;;;;;;;;;;;;;;;;;5023106;28;19920;-58
2023/01/01 13:18:51;;;;;;;;;;;;;;;;;;5024196;28;19921;-59
2023/01/01 13:21:17;;;;;;;;;;;;;;;;;;5049727;28;20073;-59
2023/01/01 13:23:43;;;;;;;;;;;;;;;;;;5025505;28;19925;-58
2023/01/01 13:26:09;;;;;;;;;;;;;;;;;;5025213;28;20067;-58
2023/01/01 13:28:35;;;;;;;;;;;;;;;;;;5022182;28;19921;-58
2023/01/01 13:31:00;;;;;;;;;;;;;;;;;;5020467;28;19928;-58
2023/01/01 13:33:31;;;;;;;;;;;;;;;;;;5021820;28;20854;-59
2023/01/01 13:35:57;;;;;;;;;;;;;;;;;;5020552;28;20231;-60
2023/01/01 13:38:23;;;;;;;;;;;;;;;;;;5022297;28;19921;-58
2023/01/01 13:40:49;;;;;;;;;;;;;;;;;;5020991;28;19928;-59
2023/01/01 13:43:14;;;;;;;;;;;;;;;;;;5019885;28;19964;-59
2023/01/01 13:45:40;;;;;;;;;;;;;;;;;;5019573;28;20322;-59
2023/01/01 13:48:06;;;;;;;;;;;;;;;;;;5018513;28;20423;-59
2023/01/01 13:50:32;;;;;;;;;;;;;;;;;;5019223;28;22006;-59
2023/01/01 13:52:58;;;;;;;;;;;;;;;;;;5019653;28;20513;-59
2023/01/01 13:55:24;;;;;;;;;;;;;;;;;;5019685;28;20011;-58
2023/01/01 13:57:50;;;;;;;;;;;;;;;;;;5021920;28;19960;-58
2023/01/01 14:00:16;;;;;;;;;;;;;;;;;;5018959;28;20394;-60
2023/01/01 14:02:42;;;;;;;;;;;;;;;;;;5018889;28;20671;-59
2023/01/01 14:05:08;;;;;;;;;;;;;;;;;;5013597;28;19927;-59
2023/01/01 14:07:34;;;;;;;;;;;;;;;;;;5015993;28;20539;-58
2023/01/01 14:10:00;;;;;;;;;;;;;;;;;;5021237;28;19921;-58
2023/01/01 14:12:26;;;;;;;;;;;;;;;;;;5016378;28;19931;-59
2023/01/01 14:14:52;;;;;;;;;;;;;;;;;;5019712;28;19932;-58
2023/01/01 14:17:18;;;;;;;;;;;;;;;;;;5022654;28;19932;-59
2023/01/01 14:19:44;;;;;;;;;;;;;;;;;;5017058;28;19925;-59
2023/01/01 14:22:10;;;;;;;;;;;;;;;;;;5019715;28;19932;-59
2023/01/01 14:24:36;;;;;;;;;;;;;;;;;;5020501;28;20012;-59
2023/01/01 14:27:02;;;;;;;;;;;;;;;;;;5020090;28;19933;-58
2023/01/01 14:29:28;;;;;;;;;;;;;;;;;;5016158;28;19921;-59
2023/01/01 14:31:54;;;;;;;;;;;;;;;;;;5019738;28;19929;-59
2023/01/01 14:34:20;;;;;;;;;;;;;;;;;;5021334;28;19921;-60
2023/01/01 14:36:46;;;;;;;;;;;;;;;;;;5018611;28;21260;-58
2023/01/01 14:39:11;;;;;;;;;;;;;;;;;;5019671;28;19925;-58
2023/01/01 14:41:37;;;;;;;;;;;;;;;;;;5015804;28;19925;-59
2023/01/01 14:44:03;;;;;;;;;;;;;;;;;;5018486;28;20003;-58
2023/01/01 14:46:29;;;;;;;;;;;;;;;;;;5021659;28;19976;-58
2023/01/01 14:48:56;;;;;;;;;;;;;;;;;;5021646;28;19928;-58
2023/01/01 14:51:21;;;;;;;;;;;;;;;;;;5022470;28;20016;-59
2023/01/01 14:53:47;;;;;;;;;;;;;;;;;;5022358;28;19921;-59
2023/01/01 14:56:16;;;;;;;;;;;;;;;;;;5020855;28;19921;-59
2023/01/01 14:58:41;;;;;;;;;;;;;;;;;;5022719;28;20866;-58
2023/01/01 15:01:07;;;;;;;;;;;;;;;;;;5021729;28;19931;-58
2023/01/01 15:03:33;;;;;;;;;;;;;;;;;;5024376;28;19928;-58
2023/01/01 15:05:59;;;;;;;;;;;;;;;;;;5021404;28;19925;-58
2023/01/01 15:08:25;;;;;;;;;;;;;;;;;;5023637;28;19921;-58
2023/01/01 15:10:51;;;;;;;;;;;;;;;;;;5017933;28;20048;-58
2023/01/01 15:13:17;;;;;;;;;;;;;;;;;;5017575;28;20399;-58
2023/01/01 15:15:43;;;;;;;;;;;;;;;;;;5022317;28;19975;-58
2023/01/01 15:18:09;;;;;;;;;;;;;;;;;;5018103;28;20422;-59
2023/01/01 15:20:35;;;;;;;;;;;;;;;;;;5022463;28;19960;-58
2023/01/01 15:23:01;;;;;;;;;;;;;;;;;;5024850;28;19921;-58
2023/01/01 15:25:28;;;;;;;;;;;;;;;;;;5039725;28;19921;-59
2023/01/01 15:27:54;;;;;;;;;;;;;;;;;;5024886;28;19922;-59
2023/01/01 15:30:20;;;;;;;;;;;;;;;;;;5022816;28;19972;-59
2023/01/01 15:32:46;;;;;;;;;;;;;;;;;;5020899;28;19944;-59
2023/01/01 15:35:12;;;;;;;;;;;;;;;;;;5022690;28;20426;-59
2023/01/01 15:37:38;;;;;;;;;;;;;;;;;;5025326;28;19921;-58
2023/01/01 15:40:04;;;;;;;;;;;;;;;;;;5020028;28;19925;-58
2023/01/01 15:42:30;;;;;;;;;;;;;;;;;;5020461;28;19956;-58
2023/01/01 15:44:56;;;;;;;;;;;;;;;;;;5023206;28;19972;-59
2023/01/01 15:47:25;;;;;;;;;;;;;;;;;;5022945;28;19921;-59
2023/01/01 15:49:51;;;;;;;;;;;;;;;;;;5019628;28;19925;-58
2023/01/01 15:52:17;;;;;;;;;;;;;;;;;;5023391;28;20387;-58
2023/01/01 15:54:43;;;;;;;;;;;;;;;;;;5026282;28;20526;-58
2023/01/01 15:57:09;;;;;;;;;;;;;;;;;;5025576;28;20488;-58
2023/01/01 15:59:35;;;;;;;;;;;;;;;;;;5025089;28;20408;-58
2023/01/01 16:02:01;;;;;;;;;;;;;;;;;;5026753;28;20454;-60
2023/01/01 16:04:26;;;;;;;;;;;;;;;;;;5024843;28;19932;-59
2023/01/01 16:06:52;;;;;;;;;;;;;;;;;;5022690;28;19925;-59
2023/01/01 16:09:18;;;;;;;;;;;;;;;;;;5023961;28;19925;-59
2023/01/01 16:11:44;;;;;;;;;;;;;;;;;;5024194;28;19921;-58
2023/01/01 16:14:10;;;;;;;;;;;;;;;;;;5024021;28;19929;-58
2023/01/01 16:16:36;;;;;;;;;;;;;;;;;;5025138;28;19967;-59
2023/01/01 16:19:02;;;;;;;;;;;;;;;;;;5019237;28;19925;-58
2023/01/01 16:24:05;;;;;;;;;;;;;;;;;;4915367;28;19934;-59
2023/01/01 16:26:31;;;;;;;;;;;;;;;;;;4911881;28;19929;-60
2023/01/01 16:28:57;;;;;;;;;;;;;;;;;;4916758;28;19927;-60
2023/01/01 16:31:22;;;;;;;;;;;;;;;;;;4913257;28;20432;-60
2023/01/01 16:33:48;;;;;;;;;;;;;;;;;;4929139;28;20335;-60
2023/01/01 16:36:14;;;;;;;;;;;;;;;;;;4922613;28;19985;-60
2023/01/01 16:38:40;;;;;;;;;;;;;;;;;;4922303;28;20559;-59
2023/01/01 16:41:06;;;;;;;;;;;;;;;;;;4922991;28;19922;-60
2023/01/01 16:43:32;;;;;;;;;;;;;;;;;;4921443;28;19923;-59